Time;durP1;ratioP1;P1;durP2;ratioP2;P2;SDS_P1;SDS_P2;PMS_P1;PMS_P2;Temp;Humidity;BMP_temperature;BMP_pressure;BME280_temperature;BME280_humidity;BME280_pressure;Samples;Min_cycle;Max_cycle;Signal;HPM_P1;HPM_P2
2022/08/31 00:04:14;;;;;;;12.23;7.63;;;;;18.70;96526.00;;;;8361464;28;20609;-79
2022/08/31 00:08:51;;;;;;;12.57;7.22;;;;;18.60;96518.00;;;;8366833;28;20224;-81
2022/08/31 00:12:56;;;;;;;10.68;7.30;;;;;18.60;96522.00;;;;8366330;28;20224;-79
2022/08/31 00:17:30;;;;;;;12.63;7.43;;;;;18.50;96516.00;;;;8367306;28;20227;-78
2022/08/31 00:21:34;;;;;;;8.85;6.88;;;;;18.50;96508.00;;;;8366368;28;20212;-77
2022/08/31 00:25:39;;;;;;;13.70;7.13;;;;;18.40;96507.00;;;;8366496;28;20227;-78
2022/08/31 00:29:44;;;;;;;11.73;7.43;;;;;18.40;96507.00;;;;8366234;28;20224;-76
2022/08/31 00:33:51;;;;;;;13.00;7.43;;;;;18.40;96513.00;;;;8366820;28;20234;-78
2022/08/31 00:37:54;;;;;;;13.05;7.15;;;;;18.30;96508.00;;;;8365942;28;20248;-77
2022/08/31 00:41:58;;;;;;;13.20;8.23;;;;;18.30;96508.00;;;;8365867;28;20649;-77
2022/08/31 00:46:03;;;;;;;11.00;6.97;;;;;18.20;96511.00;;;;8365414;28;20220;-79
2022/08/31 00:55:29;;;;;;;10.68;6.97;;;;;18.20;96512.00;;;;8364946;28;20231;-80
2022/08/31 00:59:57;;;;;;;15.68;7.43;;;;;18.10;96509.00;;;;8365033;28;20236;-81
2022/08/31 01:04:02;;;;;;;14.18;7.28;;;;;18.10;96513.00;;;;8357257;28;20216;-80
2022/08/31 01:08:06;;;;;;;11.73;7.25;;;;;18.20;96513.00;;;;8364938;28;20221;-80
2022/08/31 01:12:13;;;;;;;8.65;6.72;;;;;18.10;96507.00;;;;8365394;28;20661;-80
2022/08/31 01:16:22;;;;;;;10.02;6.43;;;;;18.20;96504.00;;;;8365519;28;20241;-79
2022/08/31 01:21:00;;;;;;;11.13;7.30;;;;;18.10;96507.00;;;;8364684;28;20585;-79
2022/08/31 01:25:05;;;;;;;10.15;6.90;;;;;18.10;96504.00;;;;8364375;28;20231;-79
2022/08/31 01:29:39;;;;;;;11.90;6.85;;;;;18.00;96503.00;;;;8364906;28;20225;-79
2022/08/31 01:33:42;;;;;;;9.70;6.80;;;;;18.00;96504.00;;;;8364206;28;20311;-78
2022/08/31 01:37:46;;;;;;;9.38;6.05;;;;;18.00;96501.00;;;;8364018;28;20222;-78
2022/08/31 01:41:51;;;;;;;9.93;6.40;;;;;18.10;96502.00;;;;8364911;28;20228;-79
2022/08/31 01:45:54;;;;;;;13.90;6.22;;;;;18.10;96506.00;;;;8363703;28;20238;-79
2022/08/31 01:49:57;;;;;;;10.00;6.63;;;;;18.10;96503.00;;;;8363328;28;20307;-78
2022/08/31 01:54:01;;;;;;;10.70;6.72;;;;;18.10;96496.00;;;;8363316;28;20224;-76
2022/08/31 01:58:06;;;;;;;11.73;6.15;;;;;18.00;96493.00;;;;8364358;28;20614;-77
2022/08/31 02:02:10;;;;;;;18.55;6.93;;;;;18.00;96489.00;;;;8364036;28;20235;-76
2022/08/31 02:06:47;;;;;;;13.00;6.93;;;;;17.90;96493.00;;;;8362666;28;20565;-77
2022/08/31 02:11:21;;;;;;;9.85;6.68;;;;;17.90;96488.00;;;;8363377;28;20293;-80
2022/08/31 02:15:59;;;;;;;8.50;6.50;;;;;17.80;96483.00;;;;8362865;28;20226;-79
2022/08/31 02:20:33;;;;;;;12.68;7.50;;;;;17.80;96492.00;;;;8361308;28;20213;-78
2022/08/31 02:25:10;;;;;;;11.57;6.55;;;;;17.80;96478.00;;;;8362811;28;20315;-78
2022/08/31 02:29:46;;;;;;;10.32;6.47;;;;;17.70;96475.00;;;;8362435;28;20697;-81
2022/08/31 02:34:25;;;;;;;11.10;6.85;;;;;17.70;96476.00;;;;8362633;28;20225;-82
2022/08/31 02:38:28;;;;;;;7.80;6.05;;;;;17.70;96490.00;;;;8358727;28;20216;-81
2022/08/31 02:42:31;;;;;;;10.93;6.90;;;;;17.70;96487.00;;;;8361864;28;20291;-80
2022/08/31 02:46:54;;;;;;;8.95;6.35;;;;;17.70;96490.00;;;;8362146;28;20680;-80
2022/08/31 02:51:33;;;;;;;7.50;5.82;;;;;17.60;96486.00;;;;8361922;28;20303;-83
2022/08/31 02:55:36;;;;;;;9.13;6.18;;;;;17.60;96483.00;;;;8361626;28;20227;-83
2022/08/31 02:59:40;;;;;;;11.50;6.45;;;;;17.60;96477.00;;;;8361854;28;20230;-83
2022/08/31 03:04:13;;;;;;;10.52;6.82;;;;;17.60;96472.00;;;;8353969;28;20303;-81
2022/08/31 03:08:18;;;;;;;7.55;5.45;;;;;17.60;96479.00;;;;8362020;28;20299;-80
2022/08/31 03:12:21;;;;;;;11.60;7.05;;;;;17.60;96489.00;;;;8361666;28;20242;-80
2022/08/31 03:16:25;;;;;;;12.68;6.75;;;;;17.50;96475.00;;;;8361563;28;20319;-81
2022/08/31 03:20:29;;;;;;;11.07;7.20;;;;;17.50;96472.00;;;;8360708;28;20220;-84
2022/08/31 03:25:02;;;;;;;10.70;6.45;;;;;17.50;96474.00;;;;8361026;28;20243;-82
2022/08/31 03:29:41;;;;;;;9.70;6.57;;;;;17.40;96479.00;;;;8360561;28;20216;-80
2022/08/31 03:33:45;;;;;;;12.52;7.18;;;;;17.40;96474.00;;;;8361156;28;20273;-79
2022/08/31 03:38:21;;;;;;;12.15;7.10;;;;;17.30;96473.00;;;;8360714;28;20228;-84
2022/08/31 03:42:25;;;;;;;12.05;7.25;;;;;17.30;96477.00;;;;8361300;28;20294;-83
2022/08/31 03:46:59;;;;;;;8.50;7.00;;;;;17.20;96477.00;;;;8360624;28;20228;-83
2022/08/31 03:51:02;;;;;;;7.40;6.15;;;;;17.20;96479.00;;;;8295485;28;20218;-82
2022/08/31 03:55:07;;;;;;;8.35;6.93;;;;;17.20;96479.00;;;;8294971;28;20308;-81
2022/08/31 03:59:41;;;;;;;11.45;7.28;;;;;17.20;96489.00;;;;8295977;28;20658;-79
2022/08/31 04:04:19;;;;;;;8.57;6.32;;;;;17.20;96492.00;;;;8293288;28;20232;-81
2022/08/31 04:08:24;;;;;;;10.23;6.45;;;;;17.20;96500.00;;;;8294691;28;20221;-81
2022/08/31 04:12:58;;;;;;;10.77;6.55;;;;;17.20;96492.00;;;;8291974;28;20286;-79
2022/08/31 04:17:35;;;;;;;8.82;6.32;;;;;17.10;96495.00;;;;8295140;28;20224;-77
2022/08/31 04:21:44;;;;;;;9.65;6.47;;;;;17.10;96494.00;;;;8284333;28;20633;-77
2022/08/31 04:25:47;;;;;;;9.65;5.47;;;;;17.10;96500.00;;;;8305420;28;20394;-79
2022/08/31 04:30:21;;;;;;;9.38;6.57;;;;;17.10;96503.00;;;;8295282;28;20248;-79
2022/08/31 04:34:24;;;;;;;9.82;7.20;;;;;17.10;96510.00;;;;8292781;28;20234;-78
2022/08/31 04:39:01;;;;;;;8.73;6.75;;;;;17.20;96513.00;;;;8294174;28;20309;-77
2022/08/31 04:43:06;;;;;;;7.68;5.75;;;;;17.20;96510.00;;;;8295868;28;20218;-77
2022/08/31 04:47:40;;;;;;;11.18;6.88;;;;;17.30;96511.00;;;;8301966;28;20300;-78
2022/08/31 04:52:14;;;;;;;9.70;7.00;;;;;17.30;96515.00;;;;8364163;28;20312;-78
2022/08/31 04:56:21;;;;;;;9.77;6.07;;;;;17.30;96517.00;;;;8365121;28;20306;-79
2022/08/31 05:00:56;;;;;;;6.95;6.00;;;;;17.30;96517.00;;;;8365853;28;20245;-79
2022/08/31 05:05:00;;;;;;;10.45;6.35;;;;;17.30;96524.00;;;;8364893;28;20239;-79
2022/08/31 05:09:37;;;;;;;12.00;6.40;;;;;17.40;96523.00;;;;8364885;28;20307;-80
2022/08/31 05:13:40;;;;;;;9.05;6.05;;;;;17.40;96521.00;;;;8364885;28;20292;-78
2022/08/31 05:18:16;;;;;;;8.70;6.20;;;;;17.40;96516.00;;;;8364772;28;20590;-79
2022/08/31 05:22:53;;;;;;;7.45;5.97;;;;;17.40;96518.00;;;;8365185;28;20251;-79
2022/08/31 05:26:56;;;;;;;6.53;5.70;;;;;17.50;96520.00;;;;8364775;28;20286;-79
2022/08/31 05:31:00;;;;;;;9.82;5.72;;;;;17.60;96524.00;;;;8364035;28;20296;-78
2022/08/31 05:35:38;;;;;;;9.88;5.78;;;;;17.70;96522.00;;;;8363511;28;20224;-79
2022/08/31 05:39:41;;;;;;;11.40;6.10;;;;;17.80;96524.00;;;;8364224;28;20221;-79
2022/08/31 05:44:19;;;;;;;8.70;6.55;;;;;17.80;96525.00;;;;8363713;28;20227;-76
2022/08/31 05:48:32;;;;;;;6.95;5.93;;;;;17.80;96525.00;;;;8363906;28;20647;-77
2022/08/31 05:52:36;;;;;;;9.38;6.20;;;;;17.80;96516.00;;;;8362985;28;20566;-78
2022/08/31 05:56:41;;;;;;;14.85;6.70;;;;;17.70;96521.00;;;;8362200;28;20561;-78
2022/08/31 06:01:15;;;;;;;6.28;5.60;;;;;17.60;96514.00;;;;8363556;28;20311;-77
2022/08/31 06:05:19;;;;;;;8.00;5.95;;;;;17.60;96515.00;;;;8362989;28;20273;-80
2022/08/31 06:09:53;;;;;;;7.53;6.18;;;;;17.60;96516.00;;;;8362613;28;20220;-79
2022/08/31 06:14:01;;;;;;;7.63;5.60;;;;;17.70;96527.00;;;;8363655;28;20546;-81
2022/08/31 06:18:37;;;;;;;8.20;5.80;;;;;17.80;96517.00;;;;8362428;28;20370;-81
2022/08/31 06:23:11;;;;;;;8.88;6.45;;;;;17.90;96514.00;;;;8362487;28;20307;-81
2022/08/31 06:27:49;;;;;;;9.18;6.03;;;;;17.90;96524.00;;;;8361959;28;20641;-80
2022/08/31 06:32:25;;;;;;;6.97;5.72;;;;;18.00;96527.00;;;;8361226;28;20220;-82
2022/08/31 06:36:58;;;;;;;8.63;5.80;;;;;18.00;96530.00;;;;8357212;28;20221;-81
2022/08/31 06:41:36;;;;;;;8.05;5.78;;;;;18.10;96530.00;;;;8361689;28;20216;-79
2022/08/31 06:46:10;;;;;;;6.78;5.10;;;;;18.30;96543.00;;;;8361917;28;20216;-78
2022/08/31 06:50:16;;;;;;;8.98;4.93;;;;;18.40;96533.00;;;;8361036;28;20229;-77
2022/08/31 06:54:48;;;;;;;8.88;5.68;;;;;18.50;96549.00;;;;8361776;28;20235;-77
2022/08/31 06:59:25;;;;;;;8.10;5.75;;;;;18.60;96546.00;;;;8361938;28;20252;-78
2022/08/31 07:03:33;;;;;;;8.30;5.55;;;;;18.60;96546.00;;;;8361409;28;20216;-81
2022/08/31 07:07:38;;;;;;;8.90;6.15;;;;;18.70;96552.00;;;;8361503;28;20299;-80
2022/08/31 07:12:12;;;;;;;6.95;5.15;;;;;18.70;96550.00;;;;8361309;28;20232;-78
2022/08/31 07:16:50;;;;;;;8.25;5.22;;;;;18.70;96551.00;;;;8361025;28;20247;-79
2022/08/31 07:20:53;;;;;;;7.93;5.85;;;;;18.80;96549.00;;;;8360548;28;20224;-70
2022/08/31 07:25:01;;;;;;;8.75;6.22;;;;;18.80;96557.00;;;;8361583;28;20235;-70
2022/08/31 07:29:39;;;;;;;7.07;5.28;;;;;18.90;96557.00;;;;8360472;28;20592;-71
2022/08/31 07:34:10;;;;;;;6.57;5.88;;;;;18.90;96556.00;;;;8359990;28;20229;-70
2022/08/31 07:42:37;;;;;;;8.10;5.55;;;;;19.00;96563.00;;;;8361591;28;20645;-77
2022/08/31 07:46:40;;;;;;;8.32;5.65;;;;;19.20;96566.00;;;;8360573;28;20233;-77
2022/08/31 07:50:45;;;;;;;6.10;5.28;;;;;19.30;96562.00;;;;8360491;28;20237;-76
2022/08/31 07:55:20;;;;;;;6.50;5.28;;;;;19.40;96573.00;;;;8360191;28;20220;-76
2022/08/31 07:59:24;;;;;;;8.73;5.22;;;;;19.50;96578.00;;;;8360589;28;20228;-77
2022/08/31 08:04:00;;;;;;;7.88;6.00;;;;;19.70;96570.00;;;;8360622;28;20643;-78
2022/08/31 08:08:07;;;;;;;6.20;5.18;;;;;19.90;96571.00;;;;8360072;28;20248;-74
2022/08/31 08:12:19;;;;;;;6.40;5.40;;;;;19.90;96579.00;;;;8359932;28;20217;-73
2022/08/31 08:16:57;;;;;;;5.65;4.50;;;;;20.10;96571.00;;;;8360858;28;20224;-74
2022/08/31 08:21:31;;;;;;;6.90;5.50;;;;;20.30;96570.00;;;;8366400;28;20231;-74
2022/08/31 08:26:10;;;;;;;6.13;5.38;;;;;20.40;96565.00;;;;8366764;28;20222;-74
2022/08/31 08:30:45;;;;;;;8.05;5.57;;;;;20.60;96576.00;;;;8366709;28;20219;-74
2022/08/31 08:35:22;;;;;;;7.70;5.57;;;;;20.80;96575.00;;;;8366099;28;20710;-72
2022/08/31 08:40:00;;;;;;;6.30;5.03;;;;;21.00;96581.00;;;;8366252;28;20285;-79
2022/08/31 08:44:32;;;;;;;8.25;5.40;;;;;21.30;96582.00;;;;8365451;28;20220;-78
2022/08/31 08:49:13;;;;;;;6.50;5.10;;;;;21.50;96575.00;;;;8365667;28;20303;-81
2022/08/31 08:53:16;;;;;;;5.97;4.82;;;;;21.60;96584.00;;;;8365548;28;20212;-81
2022/08/31 08:57:54;;;;;;;5.72;5.03;;;;;21.70;96583.00;;;;8366042;28;20255;-79
2022/08/31 09:02:31;;;;;;;6.65;4.90;;;;;21.60;96586.00;;;;8365337;28;20251;-77
2022/08/31 09:07:10;;;;;;;8.02;5.70;;;;;21.60;96592.00;;;;8364220;28;20234;-77
2022/08/31 09:11:45;;;;;;;6.75;5.55;;;;;21.70;96590.00;;;;8366219;28;20232;-76
2022/08/31 09:16:03;;;;;;;9.63;5.28;;;;;21.80;96590.00;;;;8364075;28;20252;-82
2022/08/31 09:20:27;;;;;;;8.65;5.70;;;;;21.80;96584.00;;;;8365089;28;20228;-83
2022/08/31 09:24:31;;;;;;;8.80;5.28;;;;;21.90;96584.00;;;;8364349;28;20216;-82
2022/08/31 09:28:36;;;;;;;7.43;5.40;;;;;21.90;96578.00;;;;8359718;28;20232;-85
2022/08/31 09:33:18;;;;;;;8.80;5.80;;;;;22.00;96589.00;;;;8363488;28;20232;-79
2022/08/31 09:37:24;;;;;;;13.55;5.55;;;;;22.10;96587.00;;;;8357727;28;20231;-79
2022/08/31 09:42:02;;;;;;;7.75;5.53;;;;;22.00;96590.00;;;;8363565;28;20692;-80
2022/08/31 09:46:08;;;;;;;9.52;6.30;;;;;21.90;96588.00;;;;8363370;28;20227;-78
2022/08/31 09:50:43;;;;;;;10.80;5.95;;;;;21.90;96584.00;;;;8357889;28;20286;-75
2022/08/31 09:55:24;;;;;;;7.90;5.97;;;;;22.00;96589.00;;;;8361820;28;20282;-78
2022/08/31 09:59:54;;;;;;;9.88;6.18;;;;;22.10;96598.00;;;;8363353;28;20233;-76
2022/08/31 10:04:19;;;;;;;5.97;5.45;;;;;22.40;96603.00;;;;8363202;28;20244;-76
2022/08/31 10:08:38;;;;;;;6.25;5.13;;;;;22.60;96602.00;;;;8362510;28;20224;-76
2022/08/31 10:12:48;;;;;;;7.68;5.38;;;;;23.00;96607.00;;;;8362880;28;20225;-76
2022/08/31 10:17:22;;;;;;;9.82;5.47;;;;;23.50;96604.00;;;;8363235;28;20247;-76
2022/08/31 10:21:54;;;;;;;7.70;5.43;;;;;23.60;96606.00;;;;8362322;28;20628;-76
2022/08/31 10:26:02;;;;;;;7.68;5.43;;;;;23.70;96608.00;;;;8362941;28;20274;-76
2022/08/31 10:30:32;;;;;;;8.70;5.30;;;;;23.70;96602.00;;;;8361912;28;20242;-77
2022/08/31 10:39:01;;;;;;;5.90;5.25;;;;;23.90;96601.00;;;;8361488;28;20319;-78
2022/08/31 10:43:43;;;;;;;7.65;5.57;;;;;24.00;96604.00;;;;8361721;28;20228;-78
2022/08/31 10:47:49;;;;;;;7.53;5.07;;;;;24.40;96596.00;;;;8367723;28;20633;-79
2022/08/31 10:52:02;;;;;;;6.20;4.90;;;;;24.80;96601.00;;;;8361204;28;20580;-74
2022/08/31 10:56:35;;;;;;;7.60;5.25;;;;;24.90;96604.00;;;;8361524;28;20282;-77
2022/08/31 11:00:48;;;;;;;8.20;5.47;;;;;24.90;96600.00;;;;8361631;28;20248;-77
2022/08/31 11:05:00;;;;;;;9.30;5.70;;;;;24.80;96607.00;;;;8360192;28;20702;-80
2022/08/31 11:09:31;;;;;;;10.63;5.28;;;;;24.80;96610.00;;;;8361208;28;20224;-76
2022/08/31 11:14:02;;;;;;;7.88;5.50;;;;;24.70;96613.00;;;;8361773;28;20295;-75
2022/08/31 11:18:34;;;;;;;7.30;5.68;;;;;24.60;96614.00;;;;8361326;28;20311;-76
2022/08/31 11:23:25;;;;;;;6.97;5.50;;;;;24.50;96617.00;;;;8361461;28;20221;-76
2022/08/31 11:27:53;;;;;;;10.20;5.80;;;;;24.70;96623.00;;;;8359968;28;20220;-75
2022/08/31 11:31:59;;;;;;;8.65;5.28;;;;;25.10;96616.00;;;;8359832;28;20542;-76
2022/08/31 11:36:07;;;;;;;8.55;5.15;;;;;25.50;96617.00;;;;8361031;28;20217;-76
2022/08/31 11:40:59;;;;;;;8.95;5.50;;;;;25.40;96622.00;;;;8359637;28;20216;-76
2022/08/31 11:45:07;;;;;;;8.05;4.78;;;;;25.20;96619.00;;;;8283542;28;20533;-71
2022/08/31 11:49:37;;;;;;;7.90;5.50;;;;;25.00;96619.00;;;;8360144;28;20232;-70
2022/08/31 11:59:19;;;;;;;6.63;5.32;;;;;24.20;96632.00;;;;8365767;28;20258;-70
2022/08/31 12:03:43;;;;;;;5.63;4.82;;;;;23.90;96635.00;;;;8366872;28;20220;-69
2022/08/31 12:07:48;;;;;;;8.63;5.65;;;;;23.60;96638.00;;;;8365929;28;20246;-69
2022/08/31 12:12:29;;;;;;;11.75;6.30;;;;;22.10;96639.00;;;;8366621;28;20269;-67
2022/08/31 12:16:45;;;;;;;9.68;6.47;;;;;21.10;96646.00;;;;8366622;28;20216;-69
2022/08/31 12:25:27;;;;;;;13.90;7.03;;;;;20.50;96646.00;;;;8366018;28;20213;-68
2022/08/31 12:30:07;;;;;;;7.82;5.95;;;;;20.10;96651.00;;;;8366345;28;20224;-69
2022/08/31 12:34:29;;;;;;;9.00;6.05;;;;;19.90;96651.00;;;;8366692;28;20227;-67
2022/08/31 12:39:12;;;;;;;10.88;6.85;;;;;19.70;96653.00;;;;8365340;28;20294;-64
2022/08/31 12:43:44;;;;;;;14.90;7.57;;;;;19.50;96650.00;;;;8365908;28;20228;-66
2022/08/31 12:48:00;;;;;;;10.30;6.63;;;;;19.30;96652.00;;;;8365056;28;20526;-64
2022/08/31 12:52:32;;;;;;;10.82;7.70;;;;;19.10;96650.00;;;;8364582;28;20315;-65
2022/08/31 12:57:06;;;;;;;13.60;8.45;;;;;19.10;96653.00;;;;8365456;28;20226;-65
2022/08/31 13:01:40;;;;;;;18.75;8.82;;;;;18.90;96659.00;;;;8365700;28;20217;-68
2022/08/31 13:06:15;;;;;;;14.18;9.23;;;;;18.80;96652.00;;;;8365005;28;20225;-68
2022/08/31 13:10:49;;;;;;;17.27;10.65;;;;;18.70;96656.00;;;;8363226;28;20558;-67
2022/08/31 13:15:28;;;;;;;17.42;10.30;;;;;18.70;96659.00;;;;8365282;28;20255;-67
2022/08/31 13:19:34;;;;;;;16.67;9.88;;;;;18.80;96651.00;;;;8364598;28;20220;-67
2022/08/31 13:24:09;;;;;;;18.13;10.38;;;;;18.70;96650.00;;;;8364914;28;20576;-67
2022/08/31 13:28:29;;;;;;;14.82;10.10;;;;;18.70;96651.00;;;;8364177;28;20585;-67
2022/08/31 13:33:20;;;;;;;19.95;10.15;;;;;18.70;96654.00;;;;8364715;28;20224;-67
2022/08/31 13:37:28;;;;;;;16.05;10.32;;;;;18.70;96653.00;;;;8364368;28;20224;-67
2022/08/31 13:42:04;;;;;;;15.32;9.43;;;;;18.70;96653.00;;;;8364315;28;20646;-66
2022/08/31 13:46:35;;;;;;;16.88;10.00;;;;;18.70;96650.00;;;;8360426;28;20208;-66
2022/08/31 13:51:18;;;;;;;14.05;9.57;;;;;18.70;96654.00;;;;8364146;28;20224;-65
2022/08/31 14:00:40;;;;;;;20.98;11.55;;;;;18.60;96645.00;;;;8362729;28;20238;-64
2022/08/31 14:05:27;;;;;;;17.02;11.57;;;;;18.50;96649.00;;;;8358913;28;20672;-66
2022/08/31 14:09:51;;;;;;;16.80;11.20;;;;;18.50;96644.00;;;;8362449;28;20225;-66
2022/08/31 14:14:28;;;;;;;20.20;11.32;;;;;18.50;96647.00;;;;8363024;28;20262;-66
2022/08/31 14:19:02;;;;;;;21.45;11.73;;;;;18.40;96654.00;;;;8361445;28;20216;-66
2022/08/31 14:23:40;;;;;;;16.67;11.23;;;;;18.40;96651.00;;;;8367789;28;20220;-66
2022/08/31 14:28:16;;;;;;;24.98;13.45;;;;;18.40;96657.00;;;;8361387;28;20251;-64
2022/08/31 14:32:50;;;;;;;19.90;12.38;;;;;18.40;96660.00;;;;8361524;28;20220;-64
2022/08/31 14:37:29;;;;;;;20.30;13.20;;;;;18.50;96654.00;;;;8361905;28;20216;-64
2022/08/31 14:41:35;;;;;;;20.52;12.05;;;;;18.70;96668.00;;;;8361455;28;20228;-64
2022/08/31 14:46:11;;;;;;;17.45;11.20;;;;;18.80;96666.00;;;;8361224;28;20311;-65
2022/08/31 14:50:50;;;;;;;16.85;11.85;;;;;18.80;96663.00;;;;8360868;28;20216;-65
2022/08/31 14:54:59;;;;;;;14.38;9.68;;;;;18.80;96673.00;;;;8360939;28;20303;-66
2022/08/31 14:59:31;;;;;;;13.00;9.50;;;;;18.70;96671.00;;;;8361436;28;20308;-67
2022/08/31 15:04:05;;;;;;;14.57;8.80;;;;;18.60;96668.00;;;;8359505;28;20290;-66
2022/08/31 15:08:43;;;;;;;9.43;6.72;;;;;18.50;96676.00;;;;8361327;28;20308;-67
2022/08/31 15:13:22;;;;;;;12.60;6.28;;;;;18.30;96683.00;;;;8360540;28;20676;-67
2022/08/31 15:17:56;;;;;;;7.32;5.82;;;;;18.10;96683.00;;;;8360831;28;20243;-70
2022/08/31 15:22:33;;;;;;;12.88;6.47;;;;;18.00;96670.00;;;;8360371;28;20217;-80
2022/08/31 15:27:13;;;;;;;16.98;7.25;;;;;17.90;96688.00;;;;8359680;28;20224;-75
2022/08/31 15:31:22;;;;;;;11.52;6.85;;;;;17.80;96676.00;;;;8360896;28;20247;-72
2022/08/31 15:36:01;;;;;;;21.42;8.38;;;;;17.80;96668.00;;;;8360600;28;20224;-73
2022/08/31 15:40:05;;;;;;;12.02;7.25;;;;;17.80;96668.00;;;;8360232;28;20234;-77
2022/08/31 15:44:10;;;;;;;12.38;7.45;;;;;17.90;96670.00;;;;8360244;28;20221;-72
2022/08/31 15:48:47;;;;;;;15.20;9.15;;;;;18.00;96665.00;;;;8360801;28;20307;-72
2022/08/31 15:52:54;;;;;;;15.68;8.57;;;;;18.10;96666.00;;;;8359859;28;22022;-71
2022/08/31 15:56:57;;;;;;;12.10;8.63;;;;;18.10;96665.00;;;;8360536;28;20254;-71
2022/08/31 16:01:36;;;;;;;13.80;8.45;;;;;18.10;96663.00;;;;8360135;28;20669;-71
2022/08/31 16:06:11;;;;;;;10.45;7.35;;;;;18.00;96664.00;;;;8359955;28;20634;-71
2022/08/31 16:10:48;;;;;;;10.05;8.02;;;;;18.00;96656.00;;;;8354304;28;20311;-72
2022/08/31 16:15:24;;;;;;;17.08;8.70;;;;;18.00;96654.00;;;;8358314;28;20222;-71
2022/08/31 16:20:04;;;;;;;15.52;8.80;;;;;18.10;96658.00;;;;8359651;28;20213;-72
2022/08/31 16:24:38;;;;;;;16.00;9.65;;;;;18.00;96644.00;;;;8358178;28;20396;-68
2022/08/31 16:29:13;;;;;;;14.05;8.43;;;;;18.00;96641.00;;;;8359723;28;20228;-68
2022/08/31 16:33:54;;;;;;;14.68;9.15;;;;;18.00;96651.00;;;;8358402;28;20305;-69
2022/08/31 16:38:29;;;;;;;14.27;9.30;;;;;18.00;96648.00;;;;8358832;28;20300;-69
2022/08/31 16:43:04;;;;;;;14.73;9.88;;;;;17.90;96647.00;;;;8361733;28;20291;-69
2022/08/31 16:47:41;;;;;;;12.77;9.32;;;;;17.80;96642.00;;;;8364218;28;20213;-70
2022/08/31 16:52:20;;;;;;;16.50;9.73;;;;;17.70;96649.00;;;;8364622;28;20231;-71
2022/08/31 16:56:56;;;;;;;14.30;10.35;;;;;17.60;96654.00;;;;8365140;28;20252;-72
2022/08/31 17:01:31;;;;;;;17.27;10.32;;;;;17.60;96655.00;;;;8364734;28;20255;-71
2022/08/31 17:06:05;;;;;;;17.45;9.60;;;;;17.70;96665.00;;;;8364284;28;20982;-71
2022/08/31 17:10:42;;;;;;;13.73;9.57;;;;;17.70;96658.00;;;;8369946;28;20653;-70
2022/08/31 17:15:24;;;;;;;16.15;10.10;;;;;17.70;96655.00;;;;8364692;28;20668;-73
2022/08/31 17:19:55;;;;;;;14.38;9.45;;;;;17.70;96656.00;;;;8364453;28;20638;-71
2022/08/31 17:24:34;;;;;;;19.50;9.60;;;;;17.70;96659.00;;;;8364730;28;20668;-70
2022/08/31 17:29:08;;;;;;;20.02;10.73;;;;;17.60;96662.00;;;;8363989;28;20251;-71
2022/08/31 17:33:45;;;;;;;18.08;10.55;;;;;17.60;96660.00;;;;8364169;28;20220;-72
2022/08/31 17:38:24;;;;;;;18.67;11.15;;;;;17.50;96671.00;;;;8364023;28;20311;-73
2022/08/31 17:43:04;;;;;;;20.42;11.82;;;;;17.40;96670.00;;;;8364037;28;20216;-66
2022/08/31 17:47:35;;;;;;;31.75;15.20;;;;;17.40;96678.00;;;;8364033;28;20223;-68
2022/08/31 17:52:11;;;;;;;26.92;14.63;;;;;17.40;96682.00;;;;8363568;28;20234;-68
2022/08/31 17:56:52;;;;;;;27.80;14.40;;;;;17.40;96683.00;;;;8362977;28;20231;-68
2022/08/31 18:01:29;;;;;;;25.42;14.95;;;;;17.30;96692.00;;;;8362554;28;20220;-68
2022/08/31 18:06:00;;;;;;;28.70;15.27;;;;;17.30;96696.00;;;;8363211;28;20607;-68
2022/08/31 18:10:37;;;;;;;33.05;17.35;;;;;17.20;96697.00;;;;8362762;28;20230;-67
2022/08/31 18:15:16;;;;;;;33.83;17.85;;;;;17.20;96705.00;;;;8355334;28;20748;-68
2022/08/31 18:19:47;;;;;;;33.88;18.00;;;;;17.20;96713.00;;;;8370005;28;20311;-68
2022/08/31 18:24:24;;;;;;;34.45;17.83;;;;;17.20;96704.00;;;;8362897;28;20312;-67
2022/08/31 18:29:02;;;;;;;35.80;18.15;;;;;17.20;96708.00;;;;8362584;28;20224;-67
2022/08/31 18:33:09;;;;;;;41.30;19.40;;;;;17.20;96704.00;;;;8362006;28;20270;-67
2022/08/31 18:37:19;;;;;;;33.70;17.63;;;;;17.20;96705.00;;;;8362539;28;20216;-67
2022/08/31 18:45:48;;;;;;;36.83;18.67;;;;;17.20;96713.00;;;;8350032;28;20212;-69
2022/08/31 18:50:31;;;;;;;41.22;19.83;;;;;17.20;96714.00;;;;8362583;28;20311;-69
2022/08/31 18:55:01;;;;;;;35.33;17.88;;;;;17.20;96713.00;;;;8360174;28;20662;-68
2022/08/31 18:59:35;;;;;;;42.58;19.02;;;;;17.20;96718.00;;;;8360850;28;20224;-68
2022/08/31 19:04:13;;;;;;;33.63;17.75;;;;;17.20;96717.00;;;;8361364;28;20216;-67
2022/08/31 19:08:49;;;;;;;37.22;18.38;;;;;17.20;96731.00;;;;8361292;28;20225;-67
2022/08/31 19:13:25;;;;;;;36.08;17.67;;;;;17.20;96718.00;;;;8357629;28;20665;-67
2022/08/31 19:17:28;;;;;;;39.35;17.65;;;;;17.10;96719.00;;;;8360650;28;20683;-67
2022/08/31 19:22:06;;;;;;;37.97;18.17;;;;;17.20;96722.00;;;;8360657;28;20327;-67
2022/08/31 19:26:10;;;;;;;35.53;17.95;;;;;17.20;96725.00;;;;8360600;28;20569;-67
2022/08/31 19:30:46;;;;;;;34.38;16.58;;;;;17.20;96724.00;;;;8360122;28;20231;-68
2022/08/31 19:35:19;;;;;;;31.58;16.27;;;;;17.20;96724.00;;;;8359786;28;20308;-68
2022/08/31 19:39:56;;;;;;;32.67;16.88;;;;;17.20;96726.00;;;;8359902;28;20220;-73
2022/08/31 19:44:02;;;;;;;33.78;17.25;;;;;17.10;96722.00;;;;8360875;28;20300;-75
2022/08/31 19:48:10;;;;;;;29.20;16.05;;;;;17.10;96717.00;;;;8360436;28;20221;-73
2022/08/31 19:52:47;;;;;;;39.65;18.13;;;;;17.10;96718.00;;;;8359831;28;20315;-71
2022/08/31 20:02:07;;;;;;;27.00;14.57;;;;;17.00;96719.00;;;;8360761;28;20258;-71
2022/08/31 20:06:41;;;;;;;23.80;15.30;;;;;17.00;96726.00;;;;8354841;28;20231;-72
2022/08/31 20:10:46;;;;;;;27.40;14.77;;;;;17.00;96720.00;;;;8359860;28;20239;-77
2022/08/31 20:15:19;;;;;;;28.48;14.48;;;;;17.00;96717.00;;;;8362020;28;20229;-76
2022/08/31 20:19:27;;;;;;;28.30;15.20;;;;;17.10;96716.00;;;;8366462;28;20232;-77
2022/08/31 20:24:01;;;;;;;32.13;15.60;;;;;17.00;96703.00;;;;8366121;28;20650;-74
2022/08/31 20:28:36;;;;;;;33.60;17.25;;;;;17.00;96712.00;;;;8367155;28;20220;-76
2022/08/31 20:32:40;;;;;;;28.58;15.02;;;;;17.10;96713.00;;;;8365845;28;20263;-76
2022/08/31 20:37:17;;;;;;;27.25;15.60;;;;;17.10;96714.00;;;;8366273;28;20221;-76
2022/08/31 20:41:21;;;;;;;30.55;15.48;;;;;17.10;96726.00;;;;8365052;28;20228;-75
2022/08/31 20:45:24;;;;;;;30.17;15.55;;;;;17.10;96715.00;;;;8366479;28;20319;-75
2022/08/31 20:50:01;;;;;;;26.80;15.73;;;;;17.10;96716.00;;;;8365912;28;20216;-75
2022/08/31 20:54:05;;;;;;;27.52;15.07;;;;;17.20;96710.00;;;;8365501;28;20292;-75
2022/08/31 21:03:25;;;;;;;32.03;16.67;;;;;17.10;96713.00;;;;8365552;28;20270;-76
2022/08/31 21:07:28;;;;;;;33.80;17.85;;;;;17.00;96715.00;;;;8365243;28;20646;-76
2022/08/31 21:11:35;;;;;;;38.88;19.30;;;;;17.00;96709.00;;;;8365670;28;20228;-77
2022/08/31 21:15:43;;;;;;;43.30;20.38;;;;;17.00;96716.00;;;;8364350;28;20295;-78
2022/08/31 21:20:19;;;;;;;33.28;17.35;;;;;17.10;96708.00;;;;8364463;28;20637;-77
2022/08/31 21:24:22;;;;;;;28.17;16.67;;;;;17.10;96707.00;;;;8363536;28;20312;-77
2022/08/31 21:28:27;;;;;;;26.38;15.30;;;;;17.20;96706.00;;;;8364344;28;20585;-78
2022/08/31 21:32:31;;;;;;;31.65;17.05;;;;;17.30;96705.00;;;;8370231;28;20734;-77
2022/08/31 21:36:37;;;;;;;34.30;17.60;;;;;17.30;96703.00;;;;8364438;28;20729;-77
2022/08/31 21:40:47;;;;;;;29.55;15.25;;;;;17.30;96699.00;;;;8363770;28;20252;-77
2022/08/31 21:45:15;;;;;;;31.65;17.10;;;;;17.30;96694.00;;;;8363814;28;20236;-78
2022/08/31 21:49:19;;;;;;;27.95;16.80;;;;;17.30;96694.00;;;;8364189;28;20299;-76
2022/08/31 21:53:24;;;;;;;31.23;16.48;;;;;17.30;96693.00;;;;8363554;28;20224;-77
2022/08/31 21:57:27;;;;;;;30.77;16.65;;;;;17.10;96697.00;;;;8363392;28;20228;-79
2022/08/31 22:01:32;;;;;;;33.85;16.20;;;;;17.00;96694.00;;;;8363527;28;20307;-77
2022/08/31 22:06:06;;;;;;;27.05;15.45;;;;;16.90;96701.00;;;;8363353;28;20209;-72
2022/08/31 22:10:11;;;;;;;31.63;15.30;;;;;16.80;96703.00;;;;8362833;28;20249;-72
2022/08/31 22:14:16;;;;;;;29.05;15.40;;;;;16.70;96702.00;;;;8362498;28;20305;-73
2022/08/31 22:18:19;;;;;;;30.25;15.30;;;;;16.60;96708.00;;;;8362831;28;20317;-73
2022/08/31 22:22:42;;;;;;;31.58;15.27;;;;;16.60;96696.00;;;;8367437;28;20749;-74
2022/08/31 22:26:51;;;;;;;29.30;15.20;;;;;16.60;96688.00;;;;8361934;28;20273;-74